Notre-Dame-Du-Lac, Canada
Current Conditions -  °F | °C
As of 1:53 PM on Monday 20 Oct 2014 (Local Time) from KFVE Reporting Station
Clear Clear  
Wind Chill: 32°   Ceiling: Unl
Heat Index: 41°   Visibility: 10mi
Dew Point: 23°   Wind: 18mph
Humidity: 49%   Direction: 270°W
Pressure: 29.75"   Gusts: 28mph
Location:  47.6°N, 68.8°W
Report Text: KFVE 201753Z AUTO 27016G24KT 10SM CLR 05/M05 A2975 RMK AO2 PK WND 29028/1654 SLP083 T00501050 10050 21011 58004
Loading
Personal Weather Stations






























Interactive Weather Map
Tropical Storm Tracking
New forecast layout! Learn more

10-Day Weather Forecast

Advertisements
Track Severe Weather on mobile